sensor_id;sensor_type;location;lat;lon;timestamp;temperature;humidity
8593;DHT22;4334;49.982;8.398;2024-02-14T00:02:16;6.70;99.90
8593;DHT22;4334;49.982;8.398;2024-02-14T00:04:43;6.70;99.90
8593;DHT22;4334;49.982;8.398;2024-02-14T00:07:10;6.70;99.90
8593;DHT22;4334;49.982;8.398;2024-02-14T00:09:37;6.70;99.90
8593;DHT22;4334;49.982;8.398;2024-02-14T00:12:04;6.70;99.90
8593;DHT22;4334;49.982;8.398;2024-02-14T00:14:31;6.80;99.90
8593;DHT22;4334;49.982;8.398;2024-02-14T00:16:57;6.70;99.90
8593;DHT22;4334;49.982;8.398;2024-02-14T00:19:26;6.70;99.90
8593;DHT22;4334;49.982;8.398;2024-02-14T00:21:52;6.70;99.90
8593;DHT22;4334;49.982;8.398;2024-02-14T00:24:19;6.70;99.90
8593;DHT22;4334;49.982;8.398;2024-02-14T00:26:46;6.70;99.90
8593;DHT22;4334;49.982;8.398;2024-02-14T00:29:12;6.70;99.90
8593;DHT22;4334;49.982;8.398;2024-02-14T00:31:39;6.70;99.90
8593;DHT22;4334;49.982;8.398;2024-02-14T00:34:07;6.70;99.90
8593;DHT22;4334;49.982;8.398;2024-02-14T00:36:35;6.70;99.90
8593;DHT22;4334;49.982;8.398;2024-02-14T00:39:02;6.60;99.90
8593;DHT22;4334;49.982;8.398;2024-02-14T00:41:29;6.60;99.90
8593;DHT22;4334;49.982;8.398;2024-02-14T00:43:56;9.50;99.90
8593;DHT22;4334;49.982;8.398;2024-02-14T00:46:23;6.60;99.90
8593;DHT22;4334;49.982;8.398;2024-02-14T00:48:49;6.60;99.90
8593;DHT22;4334;49.982;8.398;2024-02-14T00:51:16;6.50;99.90
8593;DHT22;4334;49.982;8.398;2024-02-14T00:53:44;6.60;99.90
8593;DHT22;4334;49.982;8.398;2024-02-14T00:56:11;6.50;99.90
8593;DHT22;4334;49.982;8.398;2024-02-14T00:58:37;6.50;99.90
8593;DHT22;4334;49.982;8.398;2024-02-14T01:01:04;6.50;99.90
8593;DHT22;4334;49.982;8.398;2024-02-14T01:03:31;6.50;99.90
8593;DHT22;4334;49.982;8.398;2024-02-14T01:05:58;6.40;99.90
8593;DHT22;4334;49.982;8.398;2024-02-14T01:08:24;6.40;99.90
8593;DHT22;4334;49.982;8.398;2024-02-14T01:10:52;6.30;99.90
8593;DHT22;4334;49.982;8.398;2024-02-14T01:13:19;6.30;99.90
8593;DHT22;4334;49.982;8.398;2024-02-14T01:15:46;6.30;99.90
8593;DHT22;4334;49.982;8.398;2024-02-14T01:18:13;6.40;99.90
8593;DHT22;4334;49.982;8.398;2024-02-14T01:20:39;6.30;99.90
8593;DHT22;4334;49.982;8.398;2024-02-14T01:23:06;6.40;99.90
8593;DHT22;4334;49.982;8.398;2024-02-14T01:25:33;6.40;99.90
8593;DHT22;4334;49.982;8.398;2024-02-14T01:28:01;6.40;99.90
8593;DHT22;4334;49.982;8.398;2024-02-14T01:30:27;6.30;99.90
8593;DHT22;4334;49.982;8.398;2024-02-14T01:32:54;6.40;99.90
8593;DHT22;4334;49.982;8.398;2024-02-14T01:35:21;6.40;99.90
8593;DHT22;4334;49.982;8.398;2024-02-14T01:37:48;6.40;99.90
8593;DHT22;4334;49.982;8.398;2024-02-14T01:40:15;6.40;99.90
8593;DHT22;4334;49.982;8.398;2024-02-14T01:42:41;6.40;99.90
8593;DHT22;4334;49.982;8.398;2024-02-14T01:45:09;6.40;99.90
8593;DHT22;4334;49.982;8.398;2024-02-14T01:47:37;6.40;99.90
8593;DHT22;4334;49.982;8.398;2024-02-14T01:50:08;6.40;99.90
8593;DHT22;4334;49.982;8.398;2024-02-14T01:52:37;6.40;99.90
8593;DHT22;4334;49.982;8.398;2024-02-14T01:55:05;6.40;99.90
8593;DHT22;4334;49.982;8.398;2024-02-14T01:57:33;6.40;99.90
8593;DHT22;4334;49.982;8.398;2024-02-14T02:00:02;6.40;99.90
8593;DHT22;4334;49.982;8.398;2024-02-14T02:02:35;6.40;99.90
8593;DHT22;4334;49.982;8.398;2024-02-14T02:05:03;6.40;99.90
8593;DHT22;4334;49.982;8.398;2024-02-14T02:07:31;6.30;99.90
8593;DHT22;4334;49.982;8.398;2024-02-14T02:09:58;6.30;99.90
8593;DHT22;4334;49.982;8.398;2024-02-14T02:12:25;6.30;99.90
8593;DHT22;4334;49.982;8.398;2024-02-14T02:14:52;10.20;99.90
8593;DHT22;4334;49.982;8.398;2024-02-14T02:17:19;6.30;99.90
8593;DHT22;4334;49.982;8.398;2024-02-14T02:19:47;6.20;99.90
8593;DHT22;4334;49.982;8.398;2024-02-14T02:22:14;6.30;99.90
8593;DHT22;4334;49.982;8.398;2024-02-14T02:24:42;6.30;99.90
8593;DHT22;4334;49.982;8.398;2024-02-14T02:27:10;6.30;99.90
8593;DHT22;4334;49.982;8.398;2024-02-14T02:29:38;6.30;99.90
8593;DHT22;4334;49.982;8.398;2024-02-14T02:32:05;6.30;99.90
8593;DHT22;4334;49.982;8.398;2024-02-14T02:34:35;9.30;99.90
8593;DHT22;4334;49.982;8.398;2024-02-14T02:37:04;6.40;99.90
8593;DHT22;4334;49.982;8.398;2024-02-14T02:39:33;6.40;99.90
8593;DHT22;4334;49.982;8.398;2024-02-14T02:42:03;9.60;99.90
8593;DHT22;4334;49.982;8.398;2024-02-14T02:44:31;6.40;99.90
8593;DHT22;4334;49.982;8.398;2024-02-14T02:46:57;6.50;99.90
8593;DHT22;4334;49.982;8.398;2024-02-14T02:49:26;6.50;99.90
8593;DHT22;4334;49.982;8.398;2024-02-14T02:51:54;6.60;99.90
8593;DHT22;4334;49.982;8.398;2024-02-14T02:54:21;6.60;99.90
8593;DHT22;4334;49.982;8.398;2024-02-14T02:56:48;6.60;99.90
8593;DHT22;4334;49.982;8.398;2024-02-14T02:59:16;6.60;99.90
8593;DHT22;4334;49.982;8.398;2024-02-14T03:01:43;6.70;99.90
8593;DHT22;4334;49.982;8.398;2024-02-14T03:04:11;6.70;99.90
8593;DHT22;4334;49.982;8.398;2024-02-14T03:06:38;6.70;99.90
8593;DHT22;4334;49.982;8.398;2024-02-14T03:09:05;6.80;99.90
8593;DHT22;4334;49.982;8.398;2024-02-14T03:11:33;6.70;99.90
8593;DHT22;4334;49.982;8.398;2024-02-14T03:14:01;6.80;99.90
8593;DHT22;4334;49.982;8.398;2024-02-14T03:16:29;6.80;99.90
8593;DHT22;4334;49.982;8.398;2024-02-14T03:18:56;6.80;99.90
8593;DHT22;4334;49.982;8.398;2024-02-14T03:21:24;6.80;99.90
8593;DHT22;4334;49.982;8.398;2024-02-14T03:23:50;6.80;99.90
8593;DHT22;4334;49.982;8.398;2024-02-14T03:26:19;6.80;99.90
8593;DHT22;4334;49.982;8.398;2024-02-14T03:28:46;6.70;99.90
8593;DHT22;4334;49.982;8.398;2024-02-14T03:31:14;6.70;99.90
8593;DHT22;4334;49.982;8.398;2024-02-14T03:33:42;6.70;99.90
8593;DHT22;4334;49.982;8.398;2024-02-14T03:36:09;6.70;99.90
8593;DHT22;4334;49.982;8.398;2024-02-14T03:38:36;6.70;99.90
8593;DHT22;4334;49.982;8.398;2024-02-14T03:41:05;6.70;99.90
8593;DHT22;4334;49.982;8.398;2024-02-14T03:43:31;6.80;99.90
8593;DHT22;4334;49.982;8.398;2024-02-14T03:45:58;6.80;99.90
8593;DHT22;4334;49.982;8.398;2024-02-14T03:48:25;6.80;99.90
8593;DHT22;4334;49.982;8.398;2024-02-14T03:50:53;6.80;99.90
8593;DHT22;4334;49.982;8.398;2024-02-14T03:53:20;6.80;99.90
8593;DHT22;4334;49.982;8.398;2024-02-14T03:55:46;6.80;99.90
8593;DHT22;4334;49.982;8.398;2024-02-14T03:58:14;6.70;99.90
8593;DHT22;4334;49.982;8.398;2024-02-14T04:00:44;6.70;99.90
8593;DHT22;4334;49.982;8.398;2024-02-14T04:03:13;6.80;99.90
8593;DHT22;4334;49.982;8.398;2024-02-14T04:05:40;6.80;99.90
8593;DHT22;4334;49.982;8.398;2024-02-14T04:08:08;6.80;99.90
8593;DHT22;4334;49.982;8.398;2024-02-14T04:10:35;6.90;99.90
8593;DHT22;4334;49.982;8.398;2024-02-14T04:13:03;6.80;99.90
8593;DHT22;4334;49.982;8.398;2024-02-14T04:15:30;6.80;99.90
8593;DHT22;4334;49.982;8.398;2024-02-14T04:17:57;6.80;99.90
8593;DHT22;4334;49.982;8.398;2024-02-14T04:20:24;6.80;99.90
8593;DHT22;4334;49.982;8.398;2024-02-14T04:22:51;6.80;99.90
8593;DHT22;4334;49.982;8.398;2024-02-14T04:25:19;6.70;99.90
8593;DHT22;4334;49.982;8.398;2024-02-14T04:27:46;6.70;99.90
8593;DHT22;4334;49.982;8.398;2024-02-14T04:30:13;6.70;99.90
8593;DHT22;4334;49.982;8.398;2024-02-14T04:32:40;6.70;99.90
8593;DHT22;4334;49.982;8.398;2024-02-14T04:35:08;6.40;99.90
8593;DHT22;4334;49.982;8.398;2024-02-14T04:37:35;6.70;99.90
8593;DHT22;4334;49.982;8.398;2024-02-14T04:40:03;6.70;99.90
8593;DHT22;4334;49.982;8.398;2024-02-14T04:42:32;7.50;99.90
8593;DHT22;4334;49.982;8.398;2024-02-14T04:44:59;6.70;99.90
8593;DHT22;4334;49.982;8.398;2024-02-14T04:47:25;6.70;99.90
8593;DHT22;4334;49.982;8.398;2024-02-14T04:49:52;7.80;99.90
8593;DHT22;4334;49.982;8.398;2024-02-14T04:52:19;6.70;99.90
8593;DHT22;4334;49.982;8.398;2024-02-14T04:54:45;6.70;99.90
8593;DHT22;4334;49.982;8.398;2024-02-14T04:57:12;6.70;99.90
8593;DHT22;4334;49.982;8.398;2024-02-14T04:59:41;6.70;99.90
8593;DHT22;4334;49.982;8.398;2024-02-14T05:02:08;6.70;99.90
8593;DHT22;4334;49.982;8.398;2024-02-14T05:04:35;6.60;99.90
8593;DHT22;4334;49.982;8.398;2024-02-14T05:07:03;6.70;99.90
8593;DHT22;4334;49.982;8.398;2024-02-14T05:09:30;6.70;99.90
8593;DHT22;4334;49.982;8.398;2024-02-14T05:11:57;5.70;99.90
8593;DHT22;4334;49.982;8.398;2024-02-14T05:14:23;6.70;99.90
8593;DHT22;4334;49.982;8.398;2024-02-14T05:16:52;6.70;99.90
8593;DHT22;4334;49.982;8.398;2024-02-14T05:19:18;6.70;99.90
8593;DHT22;4334;49.982;8.398;2024-02-14T05:21:47;6.70;99.90
8593;DHT22;4334;49.982;8.398;2024-02-14T05:24:13;6.70;99.90
8593;DHT22;4334;49.982;8.398;2024-02-14T05:26:40;6.70;99.90
8593;DHT22;4334;49.982;8.398;2024-02-14T05:29:07;6.80;99.90
8593;DHT22;4334;49.982;8.398;2024-02-14T05:31:43;6.90;99.90
8593;DHT22;4334;49.982;8.398;2024-02-14T05:34:11;9.90;99.90
8593;DHT22;4334;49.982;8.398;2024-02-14T05:36:38;6.90;99.90
8593;DHT22;4334;49.982;8.398;2024-02-14T05:39:05;7.00;99.90
8593;DHT22;4334;49.982;8.398;2024-02-14T05:41:32;10.00;99.90
8593;DHT22;4334;49.982;8.398;2024-02-14T05:44:00;7.00;99.90
8593;DHT22;4334;49.982;8.398;2024-02-14T05:46:26;7.00;99.90
8593;DHT22;4334;49.982;8.398;2024-02-14T05:48:53;7.10;99.90
8593;DHT22;4334;49.982;8.398;2024-02-14T05:51:23;7.10;99.90
8593;DHT22;4334;49.982;8.398;2024-02-14T05:53:50;7.10;99.90
8593;DHT22;4334;49.982;8.398;2024-02-14T05:56:17;7.10;99.90
8593;DHT22;4334;49.982;8.398;2024-02-14T05:58:44;7.00;99.90
8593;DHT22;4334;49.982;8.398;2024-02-14T06:01:10;7.00;99.90
8593;DHT22;4334;49.982;8.398;2024-02-14T06:03:37;7.10;99.90
8593;DHT22;4334;49.982;8.398;2024-02-14T06:06:04;7.10;99.90
8593;DHT22;4334;49.982;8.398;2024-02-14T06:08:32;7.10;99.90
8593;DHT22;4334;49.982;8.398;2024-02-14T06:10:59;7.30;99.90
8593;DHT22;4334;49.982;8.398;2024-02-14T06:13:25;7.20;99.90
8593;DHT22;4334;49.982;8.398;2024-02-14T06:15:52;7.90;99.90
8593;DHT22;4334;49.982;8.398;2024-02-14T06:18:19;7.10;99.90
8593;DHT22;4334;49.982;8.398;2024-02-14T06:20:45;7.10;99.90
8593;DHT22;4334;49.982;8.398;2024-02-14T06:23:12;7.10;99.90
8593;DHT22;4334;49.982;8.398;2024-02-14T06:25:40;7.10;99.90
8593;DHT22;4334;49.982;8.398;2024-02-14T06:28:07;7.00;99.90
8593;DHT22;4334;49.982;8.398;2024-02-14T06:30:35;7.00;99.90
8593;DHT22;4334;49.982;8.398;2024-02-14T06:33:01;7.10;99.90
8593;DHT22;4334;49.982;8.398;2024-02-14T06:35:29;7.20;99.90
8593;DHT22;4334;49.982;8.398;2024-02-14T06:37:55;7.10;99.90
8593;DHT22;4334;49.982;8.398;2024-02-14T06:40:22;7.10;99.90
8593;DHT22;4334;49.982;8.398;2024-02-14T06:42:51;7.10;99.90
8593;DHT22;4334;49.982;8.398;2024-02-14T06:45:20;7.20;99.90
8593;DHT22;4334;49.982;8.398;2024-02-14T06:47:46;7.20;99.90
8593;DHT22;4334;49.982;8.398;2024-02-14T06:50:13;7.20;99.90
8593;DHT22;4334;49.982;8.398;2024-02-14T06:52:40;7.30;99.90
8593;DHT22;4334;49.982;8.398;2024-02-14T06:55:07;7.80;99.90
8593;DHT22;4334;49.982;8.398;2024-02-14T06:57:34;7.30;99.90
8593;DHT22;4334;49.982;8.398;2024-02-14T07:00:02;7.30;99.90
8593;DHT22;4334;49.982;8.398;2024-02-14T07:02:31;7.30;99.90
8593;DHT22;4334;49.982;8.398;2024-02-14T07:04:58;7.40;99.90
8593;DHT22;4334;49.982;8.398;2024-02-14T07:07:24;7.40;99.90
8593;DHT22;4334;49.982;8.398;2024-02-14T07:09:53;7.50;99.90
8593;DHT22;4334;49.982;8.398;2024-02-14T07:12:19;7.40;99.90
8593;DHT22;4334;49.982;8.398;2024-02-14T07:14:46;7.50;99.90
8593;DHT22;4334;49.982;8.398;2024-02-14T07:17:14;7.50;99.90
8593;DHT22;4334;49.982;8.398;2024-02-14T07:19:41;7.60;99.90
8593;DHT22;4334;49.982;8.398;2024-02-14T07:22:13;7.70;99.90
8593;DHT22;4334;49.982;8.398;2024-02-14T07:24:41;7.70;99.90
8593;DHT22;4334;49.982;8.398;2024-02-14T07:27:08;7.80;99.90
8593;DHT22;4334;49.982;8.398;2024-02-14T07:29:34;7.80;99.90
8593;DHT22;4334;49.982;8.398;2024-02-14T07:32:02;7.80;99.90
8593;DHT22;4334;49.982;8.398;2024-02-14T07:34:30;7.80;99.90
8593;DHT22;4334;49.982;8.398;2024-02-14T07:36:57;7.90;99.90
8593;DHT22;4334;49.982;8.398;2024-02-14T07:39:23;7.90;99.90
8593;DHT22;4334;49.982;8.398;2024-02-14T07:41:50;7.90;99.90
8593;DHT22;4334;49.982;8.398;2024-02-14T07:44:17;7.90;99.90
8593;DHT22;4334;49.982;8.398;2024-02-14T07:46:44;8.00;99.90
8593;DHT22;4334;49.982;8.398;2024-02-14T07:49:11;8.10;99.90
8593;DHT22;4334;49.982;8.398;2024-02-14T07:51:39;8.10;99.90
8593;DHT22;4334;49.982;8.398;2024-02-14T07:54:05;8.20;99.90
8593;DHT22;4334;49.982;8.398;2024-02-14T07:56:32;8.30;99.90
8593;DHT22;4334;49.982;8.398;2024-02-14T07:58:59;8.30;99.90
8593;DHT22;4334;49.982;8.398;2024-02-14T08:01:26;8.30;99.90
8593;DHT22;4334;49.982;8.398;2024-02-14T08:03:53;8.30;99.90
8593;DHT22;4334;49.982;8.398;2024-02-14T08:06:20;8.40;99.90
8593;DHT22;4334;49.982;8.398;2024-02-14T08:08:48;8.40;99.90
8593;DHT22;4334;49.982;8.398;2024-02-14T08:11:17;8.40;99.90
8593;DHT22;4334;49.982;8.398;2024-02-14T08:13:44;8.40;99.90
8593;DHT22;4334;49.982;8.398;2024-02-14T08:16:11;9.00;99.90
8593;DHT22;4334;49.982;8.398;2024-02-14T08:18:38;8.60;99.90
8593;DHT22;4334;49.982;8.398;2024-02-14T08:21:05;8.70;99.90
8593;DHT22;4334;49.982;8.398;2024-02-14T08:23:32;8.80;99.90
8593;DHT22;4334;49.982;8.398;2024-02-14T08:26:01;8.80;99.90
8593;DHT22;4334;49.982;8.398;2024-02-14T08:28:28;8.90;99.90
8593;DHT22;4334;49.982;8.398;2024-02-14T08:30:55;9.10;99.90
8593;DHT22;4334;49.982;8.398;2024-02-14T08:33:21;9.30;99.90
8593;DHT22;4334;49.982;8.398;2024-02-14T08:35:48;9.60;99.90
8593;DHT22;4334;49.982;8.398;2024-02-14T08:38:15;9.70;99.90
8593;DHT22;4334;49.982;8.398;2024-02-14T08:40:41;9.60;99.90
8593;DHT22;4334;49.982;8.398;2024-02-14T08:43:09;9.50;99.90
8593;DHT22;4334;49.982;8.398;2024-02-14T08:45:37;9.40;99.90
8593;DHT22;4334;49.982;8.398;2024-02-14T08:48:04;12.10;99.90
8593;DHT22;4334;49.982;8.398;2024-02-14T08:50:31;9.30;99.90
8593;DHT22;4334;49.982;8.398;2024-02-14T08:52:58;9.30;99.90
8593;DHT22;4334;49.982;8.398;2024-02-14T08:55:25;9.30;99.90
8593;DHT22;4334;49.982;8.398;2024-02-14T08:57:51;9.20;99.90
8593;DHT22;4334;49.982;8.398;2024-02-14T09:00:20;9.30;99.90
8593;DHT22;4334;49.982;8.398;2024-02-14T09:02:47;9.40;99.90
8593;DHT22;4334;49.982;8.398;2024-02-14T09:05:14;9.30;99.90
8593;DHT22;4334;49.982;8.398;2024-02-14T09:07:42;9.40;99.90
8593;DHT22;4334;49.982;8.398;2024-02-14T09:10:09;11.70;99.90
8593;DHT22;4334;49.982;8.398;2024-02-14T09:12:38;9.50;99.90
8593;DHT22;4334;49.982;8.398;2024-02-14T09:15:07;9.60;99.90
8593;DHT22;4334;49.982;8.398;2024-02-14T09:17:35;9.60;99.90
8593;DHT22;4334;49.982;8.398;2024-02-14T09:20:02;9.70;99.90
8593;DHT22;4334;49.982;8.398;2024-02-14T09:22:29;9.70;99.90
8593;DHT22;4334;49.982;8.398;2024-02-14T09:24:56;9.80;99.90
8593;DHT22;4334;49.982;8.398;2024-02-14T09:27:23;9.80;99.90
8593;DHT22;4334;49.982;8.398;2024-02-14T09:29:49;9.80;99.90
8593;DHT22;4334;49.982;8.398;2024-02-14T09:32:16;10.00;99.90
8593;DHT22;4334;49.982;8.398;2024-02-14T09:34:44;10.10;99.90
8593;DHT22;4334;49.982;8.398;2024-02-14T09:37:12;10.20;99.90
8593;DHT22;4334;49.982;8.398;2024-02-14T09:39:39;10.30;99.90
8593;DHT22;4334;49.982;8.398;2024-02-14T09:42:13;10.20;99.90
8593;DHT22;4334;49.982;8.398;2024-02-14T09:44:40;10.20;99.90
8593;DHT22;4334;49.982;8.398;2024-02-14T09:47:07;10.20;99.90
8593;DHT22;4334;49.982;8.398;2024-02-14T09:49:35;13.30;99.90
8593;DHT22;4334;49.982;8.398;2024-02-14T09:52:05;10.30;99.90
8593;DHT22;4334;49.982;8.398;2024-02-14T09:54:32;10.30;99.90
8593;DHT22;4334;49.982;8.398;2024-02-14T09:57:02;10.30;99.90
8593;DHT22;4334;49.982;8.398;2024-02-14T09:59:29;10.40;99.90
8593;DHT22;4334;49.982;8.398;2024-02-14T10:03:39;10.40;99.90
8593;DHT22;4334;49.982;8.398;2024-02-14T10:06:06;10.40;99.90
8593;DHT22;4334;49.982;8.398;2024-02-14T10:08:32;10.50;99.90
8593;DHT22;4334;49.982;8.398;2024-02-14T10:10:59;12.70;99.90
8593;DHT22;4334;49.982;8.398;2024-02-14T10:13:29;10.60;99.90
8593;DHT22;4334;49.982;8.398;2024-02-14T10:15:57;10.70;99.90
8593;DHT22;4334;49.982;8.398;2024-02-14T10:18:24;10.80;99.90
8593;DHT22;4334;49.982;8.398;2024-02-14T10:20:54;10.90;99.90
8593;DHT22;4334;49.982;8.398;2024-02-14T10:23:21;11.00;99.90
8593;DHT22;4334;49.982;8.398;2024-02-14T10:25:50;11.10;99.90
8593;DHT22;4334;49.982;8.398;2024-02-14T10:28:17;11.20;99.90
8593;DHT22;4334;49.982;8.398;2024-02-14T10:30:45;11.40;99.90
8593;DHT22;4334;49.982;8.398;2024-02-14T10:33:12;11.40;99.90
8593;DHT22;4334;49.982;8.398;2024-02-14T10:35:39;11.40;99.90
8593;DHT22;4334;49.982;8.398;2024-02-14T10:38:09;11.50;99.90
8593;DHT22;4334;49.982;8.398;2024-02-14T10:40:37;11.70;99.90
8593;DHT22;4334;49.982;8.398;2024-02-14T10:43:05;11.90;99.90
8593;DHT22;4334;49.982;8.398;2024-02-14T10:45:32;11.90;99.90
8593;DHT22;4334;49.982;8.398;2024-02-14T10:48:00;11.80;99.90
8593;DHT22;4334;49.982;8.398;2024-02-14T10:50:28;11.90;99.90
8593;DHT22;4334;49.982;8.398;2024-02-14T10:53:00;12.10;99.90
8593;DHT22;4334;49.982;8.398;2024-02-14T10:55:33;12.30;99.90
8593;DHT22;4334;49.982;8.398;2024-02-14T10:58:00;12.40;99.90
8593;DHT22;4334;49.982;8.398;2024-02-14T11:00:27;12.40;99.90
8593;DHT22;4334;49.982;8.398;2024-02-14T11:02:55;12.30;99.90
8593;DHT22;4334;49.982;8.398;2024-02-14T11:05:23;15.70;99.90
8593;DHT22;4334;49.982;8.398;2024-02-14T11:07:51;12.40;99.90
8593;DHT22;4334;49.982;8.398;2024-02-14T11:10:20;15.40;99.90
8593;DHT22;4334;49.982;8.398;2024-02-14T11:12:50;13.00;99.90
8593;DHT22;4334;49.982;8.398;2024-02-14T11:15:18;12.50;99.90
8593;DHT22;4334;49.982;8.398;2024-02-14T11:17:45;12.40;99.90
8593;DHT22;4334;49.982;8.398;2024-02-14T11:20:16;12.50;99.90
8593;DHT22;4334;49.982;8.398;2024-02-14T11:22:57;12.70;99.90
8593;DHT22;4334;49.982;8.398;2024-02-14T11:25:31;13.10;99.90
8593;DHT22;4334;49.982;8.398;2024-02-14T11:28:01;13.30;99.90
8593;DHT22;4334;49.982;8.398;2024-02-14T11:30:40;13.20;99.90
8593;DHT22;4334;49.982;8.398;2024-02-14T11:33:12;13.10;99.90
8593;DHT22;4334;49.982;8.398;2024-02-14T11:35:40;12.90;99.90
8593;DHT22;4334;49.982;8.398;2024-02-14T11:38:07;12.90;99.90
8593;DHT22;4334;49.982;8.398;2024-02-14T11:40:34;12.80;99.90
8593;DHT22;4334;49.982;8.398;2024-02-14T11:43:03;12.80;99.90
8593;DHT22;4334;49.982;8.398;2024-02-14T11:45:30;12.70;99.90
8593;DHT22;4334;49.982;8.398;2024-02-14T11:47:56;12.70;99.90
8593;DHT22;4334;49.982;8.398;2024-02-14T11:50:23;12.60;99.90
8593;DHT22;4334;49.982;8.398;2024-02-14T11:52:50;12.40;99.90
8593;DHT22;4334;49.982;8.398;2024-02-14T11:55:17;12.40;99.90
8593;DHT22;4334;49.982;8.398;2024-02-14T11:57:44;12.40;99.90
8593;DHT22;4334;49.982;8.398;2024-02-14T12:00:15;12.30;99.90
8593;DHT22;4334;49.982;8.398;2024-02-14T12:02:42;12.20;99.90
8593;DHT22;4334;49.982;8.398;2024-02-14T12:05:09;12.20;99.90
8593;DHT22;4334;49.982;8.398;2024-02-14T12:07:36;12.10;99.90
8593;DHT22;4334;49.982;8.398;2024-02-14T12:10:03;12.00;99.90
8593;DHT22;4334;49.982;8.398;2024-02-14T12:12:31;12.00;99.90
8593;DHT22;4334;49.982;8.398;2024-02-14T12:15:02;12.00;99.90
8593;DHT22;4334;49.982;8.398;2024-02-14T12:17:32;12.20;99.90
8593;DHT22;4334;49.982;8.398;2024-02-14T12:20:07;12.40;99.90
8593;DHT22;4334;49.982;8.398;2024-02-14T12:22:35;12.50;99.90
8593;DHT22;4334;49.982;8.398;2024-02-14T12:25:05;12.40;99.90
8593;DHT22;4334;49.982;8.398;2024-02-14T12:27:32;12.60;99.90
8593;DHT22;4334;49.982;8.398;2024-02-14T12:29:59;12.70;99.90
8593;DHT22;4334;49.982;8.398;2024-02-14T12:32:25;12.70;99.90
8593;DHT22;4334;49.982;8.398;2024-02-14T12:34:55;12.70;99.90
8593;DHT22;4334;49.982;8.398;2024-02-14T12:37:22;12.80;99.90
8593;DHT22;4334;49.982;8.398;2024-02-14T12:39:48;12.80;99.90
8593;DHT22;4334;49.982;8.398;2024-02-14T12:42:15;12.80;99.90
8593;DHT22;4334;49.982;8.398;2024-02-14T12:44:43;12.60;99.90
8593;DHT22;4334;49.982;8.398;2024-02-14T12:47:10;12.60;99.90
8593;DHT22;4334;49.982;8.398;2024-02-14T12:49:37;12.60;99.90
8593;DHT22;4334;49.982;8.398;2024-02-14T12:52:05;15.10;99.90
8593;DHT22;4334;49.982;8.398;2024-02-14T12:54:31;12.40;99.90
8593;DHT22;4334;49.982;8.398;2024-02-14T12:56:58;16.40;99.90
8593;DHT22;4334;49.982;8.398;2024-02-14T12:59:25;12.50;99.90
8593;DHT22;4334;49.982;8.398;2024-02-14T13:01:52;12.50;99.90
8593;DHT22;4334;49.982;8.398;2024-02-14T13:04:18;12.60;99.90
8593;DHT22;4334;49.982;8.398;2024-02-14T13:06:45;12.50;99.90
8593;DHT22;4334;49.982;8.398;2024-02-14T13:09:14;12.50;99.90
8593;DHT22;4334;49.982;8.398;2024-02-14T13:11:41;12.40;99.90
8593;DHT22;4334;49.982;8.398;2024-02-14T13:14:08;12.20;99.90
8593;DHT22;4334;49.982;8.398;2024-02-14T13:16:35;12.00;99.90
8593;DHT22;4334;49.982;8.398;2024-02-14T13:19:02;11.70;99.90
8593;DHT22;4334;49.982;8.398;2024-02-14T13:21:28;11.40;99.90
8593;DHT22;4334;49.982;8.398;2024-02-14T13:23:55;11.30;99.90
8593;DHT22;4334;49.982;8.398;2024-02-14T13:26:23;11.30;99.90
8593;DHT22;4334;49.982;8.398;2024-02-14T13:28:50;11.20;99.90
8593;DHT22;4334;49.982;8.398;2024-02-14T13:31:17;11.30;99.90
8593;DHT22;4334;49.982;8.398;2024-02-14T13:33:44;12.70;99.90
8593;DHT22;4334;49.982;8.398;2024-02-14T13:36:10;11.10;99.90
8593;DHT22;4334;49.982;8.398;2024-02-14T13:38:38;11.20;99.90
8593;DHT22;4334;49.982;8.398;2024-02-14T13:41:04;11.20;99.90
8593;DHT22;4334;49.982;8.398;2024-02-14T13:43:32;11.30;99.90
8593;DHT22;4334;49.982;8.398;2024-02-14T13:45:59;11.20;99.90
8593;DHT22;4334;49.982;8.398;2024-02-14T13:48:25;11.10;99.90
8593;DHT22;4334;49.982;8.398;2024-02-14T13:50:52;11.10;99.90
8593;DHT22;4334;49.982;8.398;2024-02-14T13:53:20;11.10;99.90
8593;DHT22;4334;49.982;8.398;2024-02-14T13:55:48;11.10;99.90
8593;DHT22;4334;49.982;8.398;2024-02-14T13:58:17;11.20;99.90
8593;DHT22;4334;49.982;8.398;2024-02-14T14:00:45;14.40;99.90
8593;DHT22;4334;49.982;8.398;2024-02-14T14:03:12;11.40;99.90
8593;DHT22;4334;49.982;8.398;2024-02-14T14:05:39;11.30;99.90
8593;DHT22;4334;49.982;8.398;2024-02-14T14:08:05;11.20;99.90
8593;DHT22;4334;49.982;8.398;2024-02-14T14:10:32;11.20;99.90
8593;DHT22;4334;49.982;8.398;2024-02-14T14:12:59;11.30;99.90
8593;DHT22;4334;49.982;8.398;2024-02-14T14:15:26;11.30;99.90
8593;DHT22;4334;49.982;8.398;2024-02-14T14:17:55;11.30;99.90
8593;DHT22;4334;49.982;8.398;2024-02-14T14:20:23;11.30;99.90
8593;DHT22;4334;49.982;8.398;2024-02-14T14:22:50;11.30;99.90
8593;DHT22;4334;49.982;8.398;2024-02-14T14:25:16;11.20;99.90
8593;DHT22;4334;49.982;8.398;2024-02-14T14:27:43;11.20;99.90
8593;DHT22;4334;49.982;8.398;2024-02-14T14:30:11;11.20;99.90
8593;DHT22;4334;49.982;8.398;2024-02-14T14:32:38;11.10;99.90
8593;DHT22;4334;49.982;8.398;2024-02-14T14:35:06;13.10;99.90
8593;DHT22;4334;49.982;8.398;2024-02-14T14:37:35;11.00;99.90
8593;DHT22;4334;49.982;8.398;2024-02-14T14:40:02;11.70;99.90
8593;DHT22;4334;49.982;8.398;2024-02-14T14:42:30;11.00;99.90
8593;DHT22;4334;49.982;8.398;2024-02-14T14:44:56;11.00;99.90
8593;DHT22;4334;49.982;8.398;2024-02-14T14:47:23;11.00;99.90
8593;DHT22;4334;49.982;8.398;2024-02-14T14:49:49;10.90;99.90
8593;DHT22;4334;49.982;8.398;2024-02-14T14:52:17;10.50;99.90
8593;DHT22;4334;49.982;8.398;2024-02-14T14:54:44;10.90;99.90
8593;DHT22;4334;49.982;8.398;2024-02-14T14:57:11;10.90;99.90
8593;DHT22;4334;49.982;8.398;2024-02-14T14:59:40;10.80;99.90
8593;DHT22;4334;49.982;8.398;2024-02-14T15:02:08;10.80;99.90
8593;DHT22;4334;49.982;8.398;2024-02-14T15:04:35;10.70;99.90
8593;DHT22;4334;49.982;8.398;2024-02-14T15:07:05;10.70;99.90
8593;DHT22;4334;49.982;8.398;2024-02-14T15:09:33;10.60;99.90
8593;DHT22;4334;49.982;8.398;2024-02-14T15:12:00;10.70;99.90
8593;DHT22;4334;49.982;8.398;2024-02-14T15:14:26;10.70;99.90
8593;DHT22;4334;49.982;8.398;2024-02-14T15:16:53;10.70;99.90
8593;DHT22;4334;49.982;8.398;2024-02-14T15:19:20;10.70;99.90
8593;DHT22;4334;49.982;8.398;2024-02-14T15:21:47;10.70;99.90
8593;DHT22;4334;49.982;8.398;2024-02-14T15:24:14;14.00;99.90
8593;DHT22;4334;49.982;8.398;2024-02-14T15:26:42;10.80;99.90
8593;DHT22;4334;49.982;8.398;2024-02-14T15:29:16;10.70;99.90
8593;DHT22;4334;49.982;8.398;2024-02-14T15:32:01;10.70;99.90
8593;DHT22;4334;49.982;8.398;2024-02-14T15:34:45;10.70;99.90
8593;DHT22;4334;49.982;8.398;2024-02-14T15:37:12;10.60;99.90
8593;DHT22;4334;49.982;8.398;2024-02-14T15:39:39;10.60;99.90
8593;DHT22;4334;49.982;8.398;2024-02-14T15:42:08;10.60;99.90
8593;DHT22;4334;49.982;8.398;2024-02-14T15:44:36;10.50;99.90
8593;DHT22;4334;49.982;8.398;2024-02-14T15:47:03;10.50;99.90
8593;DHT22;4334;49.982;8.398;2024-02-14T15:49:30;10.50;99.90
8593;DHT22;4334;49.982;8.398;2024-02-14T15:51:59;11.30;99.90
8593;DHT22;4334;49.982;8.398;2024-02-14T15:54:25;10.50;99.90
8593;DHT22;4334;49.982;8.398;2024-02-14T15:56:52;10.50;99.90
8593;DHT22;4334;49.982;8.398;2024-02-14T15:59:20;10.50;99.90
8593;DHT22;4334;49.982;8.398;2024-02-14T16:01:47;13.40;99.90
8593;DHT22;4334;49.982;8.398;2024-02-14T16:04:14;10.40;99.90
8593;DHT22;4334;49.982;8.398;2024-02-14T16:06:40;10.40;99.90
8593;DHT22;4334;49.982;8.398;2024-02-14T16:09:07;10.40;99.90
8593;DHT22;4334;49.982;8.398;2024-02-14T16:11:34;10.40;99.90
8593;DHT22;4334;49.982;8.398;2024-02-14T16:14:01;10.40;99.90
8593;DHT22;4334;49.982;8.398;2024-02-14T16:16:29;10.40;99.90